Etusivu
METAR-TAF:

METAR-TAF

Lentoasemat :

El Paso, Texas, Yhdysvallat

Leveyspiiri: 31-48-40N, Pituuspiiri: 106-22-33W, korkeus merenpinnasta: 1206 m

Tämänhetkinen sää

Tämä raportti tehtiin 9 minuuttia sitten, kello 16.51 UTC
Tuuli 7 kn etelästä puuskistuen 15 kn:hen
Lämpötila 31°C
Kosteus 22%
Ilmanpaine 1017 hPa
Näkyvyys: 16.1 km
selkeää

METAR: KELP 181651Z 18007G15KT 10SM CLR 31/07 A3004 RMK AO2 SLP090 T03110067

Aika: 12:00 (17:00 UTC)

Sääennuste

Tämä raportti tehtiin 5 tuntia ja 40 minuuttia sitten, kello 11.20 UTC
Ennuste voimassa 18. päivästä klo 12 UTC - 19. päivään klo 12 UTC
Tuuli 6 kn kaakosta
Näkyvyys: 10 km
selkeää
From 18. päivästä klo 1800 UTC
Tuuli 8 kn idästä/kaakosta
Näkyvyys: 10 km
selkeää

TAF: KELP 181120Z 1812/1912 14006KT P6SM SKC FM181800 12008KT P6SM SKC

Säähavainnot ja -ennusteet yli 4000 lentoasemalta (METAR- ja TAF-raportit).

Käytössä olevat sääasemat on merkitty karttaan keltaisilla ja punaisilla pisteillä.

Aseta hiiri pisteen päälle nähdäksesi sääaseman nimen.

Klikkaa sitten nähdäksesi säähavainnot ja -ennusteet.

Kartan vaihtaminen: klikkaa mustalla rastilla varustettuja vihreitä pisteitä, niin voit zoomata sisään; viivalla varustettua vihreää pistettä, niin voit zoomata ulos tai vihreitä nuolia, niin pääset viereisille kartoille.


METAR-TAF: